Roza A — TCRB7 — position and weather

sailwx.info

Track history (hours):
 
Tides and Currents Weather Stations Pressure Air Temp Water Temp Dewpoint Dewpoint Depression Visibility Wind Speed Wind Dir Waves Ship Positions

Roza A

Last reported at 2017-Jun-16 20:41 UTC. Time now 2017-Jun-23 14:00 UTC.
Position N 40°02' E 026°15'.

; draft 7 m.

Type: Ship (hazmat cat A). MMSI: 271001057.

Date/timePositionNaut miles runAvg speedWind from/ knotsBaromVisibWave heightAir tempDewpointWater temp
2017-Jun-16 20:41N 40°02' E 026°15'512.0
2017-Jun-16 20:15N 40°01' E 026°08'712.4
2017-Jun-16 19:42N 39°58' E 026°00'312.9
2017-Jun-16 19:30N 39°56' E 025°58'713.4
2017-Jun-16 19:00N 39°51' E 025°52'1313.0
2017-Jun-16 18:00N 39°39' E 025°44'12713.6
2017-Jun-16 08:42N 37°48' E 024°26'513.7
2017-Jun-16 08:20N 37°46' E 024°21'1313.2
2017-Jun-16 07:23N 37°37' E 024°09'1212.8
2017-Jun-16 06:28N 37°34' E 023°55'613.5
2017-Jun-16 06:00N 37°36' E 023°48'713.4
2017-Jun-16 05:31N 37°41' E 023°42'713.6
2017-Jun-16 05:00N 37°47' E 023°38'612.5
2017-Jun-16 04:30N 37°53' E 023°37'4 8.4
2017-Jun-16 04:00N 37°57' E 023°35'0 0.5
2017-Jun-16 03:30N 37°57' E 023°35'0 0.0
2017-Jun-16 03:00N 37°57' E 023°35'0 0.0
2017-Jun-16 02:30N 37°57' E 023°35'0 0.0
2017-Jun-16 02:00N 37°57' E 023°35'0 0.0
2017-Jun-16 01:30N 37°57' E 023°35'0 0.0
2017-Jun-16 01:00N 37°57' E 023°35'0 0.0
2017-Jun-16 00:30N 37°57' E 023°35'0 0.0
2017-Jun-16 00:00N 37°57' E 023°35'0 0.0
2017-Jun-15 23:30N 37°57' E 023°35'0 0.0
2017-Jun-15 23:00N 37°57' E 023°35'0 0.0
2017-Jun-15 22:30N 37°57' E 023°35'0 0.3
2017-Jun-15 22:01N 37°57' E 023°35'2 4.5
2017-Jun-15 21:30N 37°55' E 023°35'0 0.8
2017-Jun-15 21:00N 37°54' E 023°35'0 0.5
2017-Jun-15 20:30N 37°54' E 023°35'2 4.8
2017-Jun-15 20:00N 37°52' E 023°34'3 5.3
2017-Jun-15 19:30N 37°50' E 023°31'0 0.2
2017-Jun-15 19:00N 37°50' E 023°31'0 0.2
2017-Jun-15 18:30N 37°50' E 023°31'0 0.1
2017-Jun-15 18:00N 37°50' E 023°31'0 0.1
2017-Jun-15 17:30N 37°50' E 023°31'0 0.0
2017-Jun-15 17:00N 37°50' E 023°31'0 0.0
2017-Jun-15 16:30N 37°50' E 023°31'0 0.0
2017-Jun-15 16:00N 37°50' E 023°31'0 0.0
2017-Jun-15 15:30N 37°50' E 023°31'0 0.0
2017-Jun-15 15:00N 37°50' E 023°31'0 0.0
2017-Jun-15 14:30N 37°50' E 023°31'0 0.0
2017-Jun-15 13:30N 37°50' E 023°31'0 0.0
2017-Jun-15 13:00N 37°50' E 023°31'0 0.0
2017-Jun-15 12:30N 37°50' E 023°31'0 0.0
2017-Jun-15 12:00N 37°50' E 023°31'0 0.1
2017-Jun-15 11:30N 37°50' E 023°31'0 0.0
2017-Jun-15 11:00N 37°50' E 023°31'0 0.1
2017-Jun-15 10:30N 37°50' E 023°31'0 0.0
2017-Jun-15 10:00N 37°50' E 023°31'0 0.1
2017-Jun-15 09:30N 37°50' E 023°31'0 0.2
2017-Jun-15 09:01N 37°50' E 023°31'1 1.7
2017-Jun-15 08:30N 37°50' E 023°32'3 6.5
2017-Jun-15 08:00N 37°51' E 023°36'4 8.6
2017-Jun-15 07:30N 37°49' E 023°40'510.7
2017-Jun-15 07:00N 37°44' E 023°43'510.5
2017-Jun-15 06:31N 37°39' E 023°46'510.5
2017-Jun-15 06:01N 37°34' E 023°46'510.7
2017-Jun-15 05:30N 37°28' E 023°46'511.1
2017-Jun-15 05:00N 37°23' E 023°47'510.8
2017-Jun-15 04:30N 37°18' E 023°46'510.8
2017-Jun-15 04:00N 37°12' E 023°44'510.7
2017-Jun-15 03:31N 37°07' E 023°43'510.6
2017-Jun-15 03:00N 37°02' E 023°41'510.6
2017-Jun-15 02:30N 36°57' E 023°39'510.4
2017-Jun-15 02:00N 36°52' E 023°36'510.4
2017-Jun-15 01:30N 36°48' E 023°34'510.2
2017-Jun-15 01:01N 36°43' E 023°31'710.2
2017-Jun-15 00:16N 36°36' E 023°27'9210.3
2017-Jun-14 15:22N 36°19' E 021°34'14113.1
2017-Jun-14 04:37N 36°20' E 018°39'214.5
2017-Jun-14 04:30N 36°20' E 018°37'16414.1
2017-Jun-13 16:56N 36°19' E 015°14'713.9
2017-Jun-13 16:27N 36°18' E 015°06'714.3
2017-Jun-13 16:00N 36°18' E 014°58'714.2
2017-Jun-13 15:30N 36°19' E 014°49'714.1
2017-Jun-13 15:00N 36°20' E 014°41'1414.2
2017-Jun-13 14:00N 36°24' E 014°24'714.1
2017-Jun-13 13:30N 36°27' E 014°16'714.1
2017-Jun-13 13:00N 36°29' E 014°07'714.1
2017-Jun-13 12:30N 36°32' E 013°59'714.0
2017-Jun-13 12:00N 36°34' E 013°51'714.0
2017-Jun-13 11:30N 36°36' E 013°43'714.4
2017-Jun-13 11:00N 36°38' E 013°34'714.3
2017-Jun-13 10:30N 36°40' E 013°26'714.0
2017-Jun-13 10:00N 36°42' E 013°17'714.0
2017-Jun-13 09:30N 36°45' E 013°09'713.8
2017-Jun-13 09:00N 36°47' E 013°01'714.0
2017-Jun-13 08:30N 36°49' E 012°53'714.5
2017-Jun-13 08:00N 36°52' E 012°44'714.5
2017-Jun-13 07:30N 36°54' E 012°35'815.2
2017-Jun-13 07:00N 36°57' E 012°27'815.1
2017-Jun-13 06:30N 36°59' E 012°17'815.0
2017-Jun-13 05:59N 37°02' E 012°08'715.0
2017-Jun-13 05:30N 37°04' E 011°60'815.2
2017-Jun-13 05:00N 37°07' E 011°51'815.1
2017-Jun-13 04:30N 37°10' E 011°42'714.8
2017-Jun-13 04:00N 37°13' E 011°34'714.4
2017-Jun-13 03:30N 37°16' E 011°26'714.5
2017-Jun-13 03:00N 37°19' E 011°17'714.5
2017-Jun-13 02:30N 37°22' E 011°09'714.4
2017-Jun-13 02:00N 37°25' E 011°01'714.7
2017-Jun-13 01:30N 37°27' E 010°52'714.6
2017-Jun-13 00:59N 37°29' E 010°43'714.6
2017-Jun-13 00:30N 37°31' E 010°34'814.8
2017-Jun-13 00:00N 37°33' E 010°25'714.7
2017-Jun-12 23:30N 37°34' E 010°16'714.9
2017-Jun-12 23:00N 37°34' E 010°06'714.8
2017-Jun-12 22:29N 37°34' E 009°57'714.7
2017-Jun-12 21:59N 37°36' E 009°48'714.5
2017-Jun-12 21:29N 37°38' E 009°39'714.5
2017-Jun-12 20:59N 37°41' E 009°31'714.6
2017-Jun-12 20:30N 37°43' E 009°22'814.6
2017-Jun-12 20:00N 37°46' E 009°13'714.7
2017-Jun-12 19:30N 37°48' E 009°05'714.6
2017-Jun-12 18:59N 37°50' E 008°56'714.7
2017-Jun-12 18:30N 37°49' E 008°47'814.7
2017-Jun-12 17:59N 37°48' E 008°37'814.7
2017-Jun-12 17:27N 37°47' E 008°27'715.0
2017-Jun-12 17:00N 37°46' E 008°19'814.9
2017-Jun-12 16:28N 37°45' E 008°09'814.4
2017-Jun-12 15:55N 37°44' E 007°59'614.1
2017-Jun-12 15:30N 37°43' E 007°52'3213.7
2017-Jun-12 13:09N 37°39' E 007°11'213.7
2017-Jun-12 12:59N 37°38' E 007°09'913.5
2017-Jun-12 12:18N 37°36' E 006°57'413.9
2017-Jun-12 12:00N 37°36' E 006°52'1214.3
2017-Jun-12 11:09N 37°34' E 006°37'614.5
2017-Jun-12 10:46N 37°34' E 006°30'714.3
2017-Jun-12 10:15N 37°33' E 006°21'514.2
2017-Jun-12 09:55N 37°33' E 006°15'1214.0
2017-Jun-12 09:02N 37°31' E 005°59'013.9
2017-Jun-12 09:00N 37°31' E 005°59'813.8
2017-Jun-12 08:25N 37°29' E 005°49'613.9
2017-Jun-12 08:00N 37°28' E 005°42'714.0
2017-Jun-12 07:30N 37°28' E 005°33'714.0
2017-Jun-12 07:00N 37°27' E 005°24'714.0
2017-Jun-12 06:30N 37°26' E 005°15'714.0
2017-Jun-12 06:00N 37°25' E 005°07'714.0
2017-Jun-12 05:30N 37°23' E 004°58'713.8
2017-Jun-12 05:00N 37°22' E 004°49'713.9
2017-Jun-12 04:30N 37°22' E 004°41'714.0
2017-Jun-12 04:00N 37°21' E 004°32'713.9
2017-Jun-12 03:30N 37°20' E 004°23'714.0
2017-Jun-12 03:00N 37°19' E 004°14'714.0
2017-Jun-12 02:30N 37°18' E 004°06'714.3
2017-Jun-12 02:00N 37°16' E 003°57'714.4
2017-Jun-12 01:30N 37°16' E 003°48'714.2
2017-Jun-12 01:00N 37°15' E 003°39'714.3
2017-Jun-12 00:31N 37°14' E 003°30'714.1
2017-Jun-12 00:00N 37°13' E 003°21'714.1
2017-Jun-11 23:30N 37°12' E 003°13'714.0
2017-Jun-11 23:00N 37°11' E 003°04'714.0
2017-Jun-11 22:30N 37°10' E 002°55'713.9
2017-Jun-11 22:00N 37°10' E 002°46'714.0
2017-Jun-11 21:30N 37°08' E 002°38'714.1
2017-Jun-11 20:59N 37°07' E 002°29'714.1
2017-Jun-11 20:30N 37°05' E 002°20'1613.8
2017-Jun-11 19:20N 37°04' E 002°00'713.7
2017-Jun-11 18:49N 37°03' E 001°51'413.4
2017-Jun-11 18:30N 37°02' E 001°46'813.5
2017-Jun-11 17:55N 37°01' E 001°37'613.4
2017-Jun-11 17:30N 37°00' E 001°30'713.7
2017-Jun-11 17:00N 36°60' E 001°21'813.7
2017-Jun-11 16:27N 36°59' E 001°12'613.8
2017-Jun-11 15:59N 36°58' E 001°04'714.0
2017-Jun-11 15:30N 36°57' E 000°55'713.9
2017-Jun-11 15:00N 36°55' E 000°47'713.9
2017-Jun-11 14:30N 36°53' E 000°39'1413.9
2017-Jun-11 13:30N 36°50' E 000°22'714.1
2017-Jun-11 13:00N 36°48' E 000°13'1314.0
2017-Jun-11 12:05N 36°44' W 000°02'513.7
2017-Jun-11 11:43N 36°43' W 000°08'1713.3
2017-Jun-11 10:26N 36°38' W 000°28'613.4
2017-Jun-11 10:00N 36°36' W 000°35'813.6
2017-Jun-11 09:26N 36°33' W 000°44'3013.9
2017-Jun-11 07:17N 36°25' W 001°20'414.0
2017-Jun-11 07:00N 36°24' W 001°25'714.1
2017-Jun-11 06:30N 36°23' W 001°33'914.2
2017-Jun-11 05:53N 36°21' W 001°44'514.2
2017-Jun-11 05:30N 36°19' W 001°50'16514.1
2017-Jun-10 17:50N 35°60' W 005°13'515.5
2017-Jun-10 17:30N 35°59' W 005°19'714.6
2017-Jun-10 17:00N 35°57' W 005°28'714.3
2017-Jun-10 16:29N 35°55' W 005°37'714.0
2017-Jun-10 16:00N 35°54' W 005°45'714.1
2017-Jun-10 15:31N 35°53' W 005°54'4013.1
2017-Jun-10 12:28N 35°24' W 006°27'714.1
2017-Jun-10 11:58N 35°18' W 006°32'913.8
2017-Jun-10 11:17N 35°10' W 006°39'1714.4
2017-Jun-10 10:06N 34°54' W 006°44'114.5
2017-Jun-10 10:00N 34°53' W 006°45'2214.6
2017-Jun-10 08:31N 34°34' W 006°60'014.5
2017-Jun-10 08:30N 34°34' W 006°60'713.3
2017-Jun-10 08:00N 34°29' W 007°04'5513.1
2017-Jun-10 03:48N 33°39' W 007°34'13 0.4
2017-Jun-08 18:39N 33°52' W 007°36'11 5.8
2017-Jun-08 16:49N 34°03' W 007°34'16 9.0
2017-Jun-08 15:01N 34°13' W 007°18'0 9.9
2017-Jun-08 15:00N 34°13' W 007°18'611.2
2017-Jun-08 14:30N 34°18' W 007°15'11313.4
2017-Jun-08 06:05N 35°51' W 005°59'113.7
2017-Jun-08 06:00N 35°52' W 005°58'613.0
2017-Jun-08 05:30N 35°56' W 005°52'713.5
2017-Jun-08 05:00N 35°57' W 005°44'713.0
2017-Jun-08 04:30N 35°57' W 005°36'4 0.2
2017-Jun-07 05:47N 35°55' W 005°31'1 4.7
2017-Jun-07 05:29N 35°54' W 005°33'0 1.0
2017-Jun-07 05:00N 35°54' W 005°33'2 1.9
2017-Jun-07 04:05N 35°52' W 005°34'0 0.0
2017-Jun-07 00:22N 35°52' W 005°34'2 4.5
2017-Jun-07 00:00N 35°54' W 005°33'4 8.3
2017-Jun-06 23:31N 35°57' W 005°31'611.5
2017-Jun-06 23:01N 36°00' W 005°25'611.1
2017-Jun-06 22:30N 36°02' W 005°18'510.9
2017-Jun-06 22:00N 36°03' W 005°12'611.0
2017-Jun-06 21:30N 36°03' W 005°05'610.8
2017-Jun-06 20:56N 36°04' W 004°57'  
Track history (hours):
 
Tides and Currents Weather Stations Pressure Air Temp Water Temp Dewpoint Dewpoint Depression Visibility Wind Speed Wind Dir Waves Ship Positions

Roza A

Last reported at 2017-Jun-16 20:41 UTC. Time now 2017-Jun-23 14:00 UTC.
Position N 40°02' E 026°15'.

; draft 7 m.

Type: Ship (hazmat cat A). MMSI: 271001057.

Date/timePositionNaut miles runAvg speedWind from/ knotsBaromVisibWave heightAir tempDewpointWater temp
2017-Jun-16 20:41N 40°02' E 026°15'512.0
2017-Jun-16 20:15N 40°01' E 026°08'712.4
2017-Jun-16 19:42N 39°58' E 026°00'312.9
2017-Jun-16 19:30N 39°56' E 025°58'713.4
2017-Jun-16 19:00N 39°51' E 025°52'1313.0
2017-Jun-16 18:00N 39°39' E 025°44'12713.6
2017-Jun-16 08:42N 37°48' E 024°26'513.7
2017-Jun-16 08:20N 37°46' E 024°21'1313.2
2017-Jun-16 07:23N 37°37' E 024°09'1212.8
2017-Jun-16 06:28N 37°34' E 023°55'613.5
2017-Jun-16 06:00N 37°36' E 023°48'713.4
2017-Jun-16 05:31N 37°41' E 023°42'713.6
2017-Jun-16 05:00N 37°47' E 023°38'612.5
2017-Jun-16 04:30N 37°53' E 023°37'4 8.4
2017-Jun-16 04:00N 37°57' E 023°35'0 0.5
2017-Jun-16 03:30N 37°57' E 023°35'0 0.0
2017-Jun-16 03:00N 37°57' E 023°35'0 0.0
2017-Jun-16 02:30N 37°57' E 023°35'0 0.0
2017-Jun-16 02:00N 37°57' E 023°35'0 0.0
2017-Jun-16 01:30N 37°57' E 023°35'0 0.0
2017-Jun-16 01:00N 37°57' E 023°35'0 0.0
2017-Jun-16 00:30N 37°57' E 023°35'0 0.0
2017-Jun-16 00:00N 37°57' E 023°35'0 0.0
2017-Jun-15 23:30N 37°57' E 023°35'0 0.0
2017-Jun-15 23:00N 37°57' E 023°35'0 0.0
2017-Jun-15 22:30N 37°57' E 023°35'0 0.3
2017-Jun-15 22:01N 37°57' E 023°35'2 4.5
2017-Jun-15 21:30N 37°55' E 023°35'0 0.8
2017-Jun-15 21:00N 37°54' E 023°35'0 0.5
2017-Jun-15 20:30N 37°54' E 023°35'2 4.8
2017-Jun-15 20:00N 37°52' E 023°34'3 5.3
2017-Jun-15 19:30N 37°50' E 023°31'0 0.2
2017-Jun-15 19:00N 37°50' E 023°31'0 0.2
2017-Jun-15 18:30N 37°50' E 023°31'0 0.1
2017-Jun-15 18:00N 37°50' E 023°31'0 0.1
2017-Jun-15 17:30N 37°50' E 023°31'0 0.0
2017-Jun-15 17:00N 37°50' E 023°31'0 0.0
2017-Jun-15 16:30N 37°50' E 023°31'0 0.0
2017-Jun-15 16:00N 37°50' E 023°31'0 0.0
2017-Jun-15 15:30N 37°50' E 023°31'0 0.0
2017-Jun-15 15:00N 37°50' E 023°31'0 0.0
2017-Jun-15 14:30N 37°50' E 023°31'0 0.0
2017-Jun-15 13:30N 37°50' E 023°31'0 0.0
2017-Jun-15 13:00N 37°50' E 023°31'0 0.0
2017-Jun-15 12:30N 37°50' E 023°31'0 0.0
2017-Jun-15 12:00N 37°50' E 023°31'0 0.1
2017-Jun-15 11:30N 37°50' E 023°31'0 0.0
2017-Jun-15 11:00N 37°50' E 023°31'0 0.1
2017-Jun-15 10:30N 37°50' E 023°31'0 0.0
2017-Jun-15 10:00N 37°50' E 023°31'0 0.1
2017-Jun-15 09:30N 37°50' E 023°31'0 0.2
2017-Jun-15 09:01N 37°50' E 023°31'1 1.7
2017-Jun-15 08:30N 37°50' E 023°32'3 6.5
2017-Jun-15 08:00N 37°51' E 023°36'4 8.6
2017-Jun-15 07:30N 37°49' E 023°40'510.7
2017-Jun-15 07:00N 37°44' E 023°43'510.5
2017-Jun-15 06:31N 37°39' E 023°46'510.5
2017-Jun-15 06:01N 37°34' E 023°46'510.7
2017-Jun-15 05:30N 37°28' E 023°46'511.1
2017-Jun-15 05:00N 37°23' E 023°47'510.8
2017-Jun-15 04:30N 37°18' E 023°46'510.8
2017-Jun-15 04:00N 37°12' E 023°44'510.7
2017-Jun-15 03:31N 37°07' E 023°43'510.6
2017-Jun-15 03:00N 37°02' E 023°41'510.6
2017-Jun-15 02:30N 36°57' E 023°39'510.4
2017-Jun-15 02:00N 36°52' E 023°36'510.4
2017-Jun-15 01:30N 36°48' E 023°34'510.2
2017-Jun-15 01:01N 36°43' E 023°31'710.2
2017-Jun-15 00:16N 36°36' E 023°27'9210.3
2017-Jun-14 15:22N 36°19' E 021°34'14113.1
2017-Jun-14 04:37N 36°20' E 018°39'214.5
2017-Jun-14 04:30N 36°20' E 018°37'16414.1
2017-Jun-13 16:56N 36°19' E 015°14'713.9
2017-Jun-13 16:27N 36°18' E 015°06'714.3
2017-Jun-13 16:00N 36°18' E 014°58'714.2
2017-Jun-13 15:30N 36°19' E 014°49'714.1
2017-Jun-13 15:00N 36°20' E 014°41'1414.2
2017-Jun-13 14:00N 36°24' E 014°24'714.1
2017-Jun-13 13:30N 36°27' E 014°16'714.1
2017-Jun-13 13:00N 36°29' E 014°07'714.1
2017-Jun-13 12:30N 36°32' E 013°59'714.0
2017-Jun-13 12:00N 36°34' E 013°51'714.0
2017-Jun-13 11:30N 36°36' E 013°43'714.4
2017-Jun-13 11:00N 36°38' E 013°34'714.3
2017-Jun-13 10:30N 36°40' E 013°26'714.0
2017-Jun-13 10:00N 36°42' E 013°17'714.0
2017-Jun-13 09:30N 36°45' E 013°09'713.8
2017-Jun-13 09:00N 36°47' E 013°01'714.0
2017-Jun-13 08:30N 36°49' E 012°53'714.5
2017-Jun-13 08:00N 36°52' E 012°44'714.5
2017-Jun-13 07:30N 36°54' E 012°35'815.2
2017-Jun-13 07:00N 36°57' E 012°27'815.1
2017-Jun-13 06:30N 36°59' E 012°17'815.0
2017-Jun-13 05:59N 37°02' E 012°08'715.0
2017-Jun-13 05:30N 37°04' E 011°60'815.2
2017-Jun-13 05:00N 37°07' E 011°51'815.1
2017-Jun-13 04:30N 37°10' E 011°42'714.8
2017-Jun-13 04:00N 37°13' E 011°34'714.4
2017-Jun-13 03:30N 37°16' E 011°26'714.5
2017-Jun-13 03:00N 37°19' E 011°17'714.5
2017-Jun-13 02:30N 37°22' E 011°09'714.4
2017-Jun-13 02:00N 37°25' E 011°01'714.7
2017-Jun-13 01:30N 37°27' E 010°52'714.6
2017-Jun-13 00:59N 37°29' E 010°43'714.6
2017-Jun-13 00:30N 37°31' E 010°34'814.8
2017-Jun-13 00:00N 37°33' E 010°25'714.7
2017-Jun-12 23:30N 37°34' E 010°16'714.9
2017-Jun-12 23:00N 37°34' E 010°06'714.8
2017-Jun-12 22:29N 37°34' E 009°57'714.7
2017-Jun-12 21:59N 37°36' E 009°48'714.5
2017-Jun-12 21:29N 37°38' E 009°39'714.5
2017-Jun-12 20:59N 37°41' E 009°31'714.6
2017-Jun-12 20:30N 37°43' E 009°22'814.6
2017-Jun-12 20:00N 37°46' E 009°13'714.7
2017-Jun-12 19:30N 37°48' E 009°05'714.6
2017-Jun-12 18:59N 37°50' E 008°56'714.7
2017-Jun-12 18:30N 37°49' E 008°47'814.7
2017-Jun-12 17:59N 37°48' E 008°37'814.7
2017-Jun-12 17:27N 37°47' E 008°27'715.0
2017-Jun-12 17:00N 37°46' E 008°19'814.9
2017-Jun-12 16:28N 37°45' E 008°09'814.4
2017-Jun-12 15:55N 37°44' E 007°59'614.1
2017-Jun-12 15:30N 37°43' E 007°52'3213.7
2017-Jun-12 13:09N 37°39' E 007°11'213.7
2017-Jun-12 12:59N 37°38' E 007°09'913.5
2017-Jun-12 12:18N 37°36' E 006°57'413.9
2017-Jun-12 12:00N 37°36' E 006°52'1214.3
2017-Jun-12 11:09N 37°34' E 006°37'614.5
2017-Jun-12 10:46N 37°34' E 006°30'714.3
2017-Jun-12 10:15N 37°33' E 006°21'514.2
2017-Jun-12 09:55N 37°33' E 006°15'1214.0
2017-Jun-12 09:02N 37°31' E 005°59'013.9
2017-Jun-12 09:00N 37°31' E 005°59'813.8
2017-Jun-12 08:25N 37°29' E 005°49'613.9
2017-Jun-12 08:00N 37°28' E 005°42'714.0
2017-Jun-12 07:30N 37°28' E 005°33'714.0
2017-Jun-12 07:00N 37°27' E 005°24'714.0
2017-Jun-12 06:30N 37°26' E 005°15'714.0
2017-Jun-12 06:00N 37°25' E 005°07'714.0
2017-Jun-12 05:30N 37°23' E 004°58'713.8
2017-Jun-12 05:00N 37°22' E 004°49'713.9
2017-Jun-12 04:30N 37°22' E 004°41'714.0
2017-Jun-12 04:00N 37°21' E 004°32'713.9
2017-Jun-12 03:30N 37°20' E 004°23'714.0
2017-Jun-12 03:00N 37°19' E 004°14'714.0
2017-Jun-12 02:30N 37°18' E 004°06'714.3
2017-Jun-12 02:00N 37°16' E 003°57'714.4
2017-Jun-12 01:30N 37°16' E 003°48'714.2
2017-Jun-12 01:00N 37°15' E 003°39'714.3
2017-Jun-12 00:31N 37°14' E 003°30'714.1
2017-Jun-12 00:00N 37°13' E 003°21'714.1
2017-Jun-11 23:30N 37°12' E 003°13'714.0
2017-Jun-11 23:00N 37°11' E 003°04'714.0
2017-Jun-11 22:30N 37°10' E 002°55'713.9
2017-Jun-11 22:00N 37°10' E 002°46'714.0
2017-Jun-11 21:30N 37°08' E 002°38'714.1
2017-Jun-11 20:59N 37°07' E 002°29'714.1
2017-Jun-11 20:30N 37°05' E 002°20'1613.8
2017-Jun-11 19:20N 37°04' E 002°00'713.7
2017-Jun-11 18:49N 37°03' E 001°51'413.4
2017-Jun-11 18:30N 37°02' E 001°46'813.5
2017-Jun-11 17:55N 37°01' E 001°37'613.4
2017-Jun-11 17:30N 37°00' E 001°30'713.7
2017-Jun-11 17:00N 36°60' E 001°21'813.7
2017-Jun-11 16:27N 36°59' E 001°12'613.8
2017-Jun-11 15:59N 36°58' E 001°04'714.0
2017-Jun-11 15:30N 36°57' E 000°55'713.9
2017-Jun-11 15:00N 36°55' E 000°47'713.9
2017-Jun-11 14:30N 36°53' E 000°39'1413.9
2017-Jun-11 13:30N 36°50' E 000°22'714.1
2017-Jun-11 13:00N 36°48' E 000°13'1314.0
2017-Jun-11 12:05N 36°44' W 000°02'513.7
2017-Jun-11 11:43N 36°43' W 000°08'1713.3
2017-Jun-11 10:26N 36°38' W 000°28'613.4
2017-Jun-11 10:00N 36°36' W 000°35'813.6
2017-Jun-11 09:26N 36°33' W 000°44'3013.9
2017-Jun-11 07:17N 36°25' W 001°20'414.0
2017-Jun-11 07:00N 36°24' W 001°25'714.1
2017-Jun-11 06:30N 36°23' W 001°33'914.2
2017-Jun-11 05:53N 36°21' W 001°44'514.2
2017-Jun-11 05:30N 36°19' W 001°50'16514.1
2017-Jun-10 17:50N 35°60' W 005°13'515.5
2017-Jun-10 17:30N 35°59' W 005°19'714.6
2017-Jun-10 17:00N 35°57' W 005°28'714.3
2017-Jun-10 16:29N 35°55' W 005°37'714.0
2017-Jun-10 16:00N 35°54' W 005°45'714.1
2017-Jun-10 15:31N 35°53' W 005°54'4013.1
2017-Jun-10 12:28N 35°24' W 006°27'714.1
2017-Jun-10 11:58N 35°18' W 006°32'913.8
2017-Jun-10 11:17N 35°10' W 006°39'1714.4
2017-Jun-10 10:06N 34°54' W 006°44'114.5
2017-Jun-10 10:00N 34°53' W 006°45'2214.6
2017-Jun-10 08:31N 34°34' W 006°60'014.5
2017-Jun-10 08:30N 34°34' W 006°60'713.3
2017-Jun-10 08:00N 34°29' W 007°04'5513.1
2017-Jun-10 03:48N 33°39' W 007°34'13 0.4
2017-Jun-08 18:39N 33°52' W 007°36'11 5.8
2017-Jun-08 16:49N 34°03' W 007°34'16 9.0
2017-Jun-08 15:01N 34°13' W 007°18'0 9.9
2017-Jun-08 15:00N 34°13' W 007°18'611.2
2017-Jun-08 14:30N 34°18' W 007°15'11313.4
2017-Jun-08 06:05N 35°51' W 005°59'113.7
2017-Jun-08 06:00N 35°52' W 005°58'613.0
2017-Jun-08 05:30N 35°56' W 005°52'713.5
2017-Jun-08 05:00N 35°57' W 005°44'713.0
2017-Jun-08 04:30N 35°57' W 005°36'4 0.2
2017-Jun-07 05:47N 35°55' W 005°31'1 4.7
2017-Jun-07 05:29N 35°54' W 005°33'0 1.0
2017-Jun-07 05:00N 35°54' W 005°33'2 1.9
2017-Jun-07 04:05N 35°52' W 005°34'0 0.0
2017-Jun-07 00:22N 35°52' W 005°34'2 4.5
2017-Jun-07 00:00N 35°54' W 005°33'4 8.3
2017-Jun-06 23:31N 35°57' W 005°31'611.5
2017-Jun-06 23:01N 36°00' W 005°25'611.1
2017-Jun-06 22:30N 36°02' W 005°18'510.9
2017-Jun-06 22:00N 36°03' W 005°12'611.0
2017-Jun-06 21:30N 36°03' W 005°05'610.8
2017-Jun-06 20:56N 36°04' W 004°57'  

Dump ship's entire track history